createdAt,value
2018-05-24T00:00:13.253Z,102663.50
2018-05-24T00:02:40.706Z,102658.04
2018-05-24T00:05:08.118Z,102661.30
2018-05-24T00:07:35.556Z,102660.26
2018-05-24T00:10:03.035Z,102658.36
2018-05-24T00:12:31.409Z,102660.28
2018-05-24T00:14:58.853Z,102660.76
2018-05-24T00:17:26.274Z,102663.02
2018-05-24T00:19:53.718Z,102662.52
2018-05-24T00:22:22.130Z,102661.75
2018-05-24T00:24:49.571Z,102666.08
2018-05-24T00:27:21.142Z,102663.42
2018-05-24T00:29:49.557Z,102664.58
2018-05-24T00:32:16.977Z,102668.17
2018-05-24T00:34:44.419Z,102670.98
2018-05-24T00:37:12.820Z,102673.98
2018-05-24T00:39:40.267Z,102673.93
2018-05-24T00:42:07.685Z,102680.06
2018-05-24T00:44:35.123Z,102676.91
2018-05-24T00:47:02.541Z,102678.28
2018-05-24T00:49:29.993Z,102679.71
2018-05-24T00:51:57.406Z,102684.03
2018-05-24T00:54:24.817Z,102682.23
2018-05-24T00:56:52.262Z,102686.48
2018-05-24T00:59:19.681Z,102685.46
2018-05-24T01:01:47.134Z,102684.92
2018-05-24T01:04:14.546Z,102688.94
2018-05-24T01:06:41.990Z,102683.73
2018-05-24T01:09:09.406Z,102680.73
2018-05-24T01:11:36.845Z,102684.63
2018-05-24T01:14:04.261Z,102682.52
2018-05-24T01:16:31.705Z,102682.52
2018-05-24T01:18:59.118Z,102684.83
2018-05-24T01:21:26.565Z,102685.47
2018-05-24T01:23:53.974Z,102686.73
2018-05-24T01:26:21.453Z,102688.11
2018-05-24T01:28:48.869Z,102691.78
2018-05-24T01:31:16.290Z,102692.55
2018-05-24T01:33:43.742Z,102696.70
2018-05-24T01:36:11.161Z,102689.23
2018-05-24T01:38:38.638Z,102688.28
2018-05-24T01:41:06.051Z,102690.44
2018-05-24T01:43:34.478Z,102697.45
2018-05-24T01:46:01.885Z,102693.50
2018-05-24T01:48:29.331Z,102690.80
2018-05-24T01:50:56.742Z,102695.60
2018-05-24T01:53:24.182Z,102693.05
2018-05-24T01:55:51.593Z,102693.83
2018-05-24T01:58:19.063Z,102698.41
2018-05-24T02:00:46.480Z,102694.53
2018-05-24T02:03:13.901Z,102690.67
2018-05-24T02:05:41.337Z,102696.50
2018-05-24T02:08:08.758Z,102690.19
2018-05-24T02:10:36.203Z,102702.97
2018-05-24T02:13:03.617Z,102697.27
2018-05-24T02:15:31.057Z,102691.56
2018-05-24T02:17:58.474Z,102695.52
2018-05-24T02:20:25.910Z,102691.91
2018-05-24T02:22:53.323Z,102691.14
2018-05-24T02:25:21.751Z,102691.48
2018-05-24T02:27:49.162Z,102691.77
2018-05-24T02:30:17.586Z,102683.98
2018-05-24T02:32:45.016Z,102690.57
2018-05-24T02:35:12.450Z,102687.72
2018-05-24T02:37:39.875Z,102684.63
2018-05-24T02:40:09.255Z,102684.87
2018-05-24T02:42:37.606Z,102680.90
2018-05-24T02:45:05.047Z,102678.13
2018-05-24T02:47:32.471Z,102684.06
2018-05-24T02:49:59.925Z,102677.48
2018-05-24T02:52:27.333Z,102675.39
2018-05-24T02:54:54.761Z,102675.33
2018-05-24T02:57:22.194Z,102679.92
2018-05-24T02:59:49.613Z,102678.11
2018-05-24T03:02:17.060Z,102679.30
2018-05-24T03:04:44.465Z,102678.59
2018-05-24T03:07:11.927Z,102678.81
2018-05-24T03:09:39.332Z,102681.64
2018-05-24T03:12:06.770Z,102679.41
2018-05-24T03:14:34.193Z,102670.23
2018-05-24T03:17:01.630Z,102675.67
2018-05-24T03:19:29.043Z,102671.22
2018-05-24T03:21:56.486Z,102679.87
2018-05-24T03:24:23.902Z,102673.54
2018-05-24T03:26:52.305Z,102676.98
2018-05-24T03:29:19.721Z,102678.85
2018-05-24T03:31:47.221Z,102682.50
2018-05-24T03:34:14.630Z,102675.55
2018-05-24T03:36:42.065Z,102672.12
2018-05-24T03:39:09.500Z,102673.64
2018-05-24T03:41:36.913Z,102673.50
2018-05-24T03:44:04.360Z,102673.93
2018-05-24T03:46:32.651Z,102668.53
2018-05-24T03:49:00.109Z,102673.69
2018-05-24T03:51:27.525Z,102675.33
2018-05-24T03:53:54.965Z,102670.47
2018-05-24T03:56:23.365Z,102667.41
2018-05-24T03:58:50.814Z,102665.41
2018-05-24T04:01:30.158Z,102660.59
2018-05-24T04:04:10.224Z,102664.66
2018-05-24T04:06:37.638Z,102660.55
2018-05-24T04:09:05.083Z,102666.41
2018-05-24T04:11:33.384Z,102664.56
2018-05-24T04:14:02.817Z,102667.83
2018-05-24T04:16:30.234Z,102667.42
2018-05-24T04:18:57.680Z,102660.75
2018-05-24T04:21:25.086Z,102659.89
2018-05-24T04:23:52.525Z,102660.95
2018-05-24T04:26:19.950Z,102660.09
2018-05-24T04:28:47.409Z,102659.00
2018-05-24T04:31:14.833Z,102658.58
2018-05-24T04:33:42.299Z,102655.67
2018-05-24T04:36:10.617Z,102651.75
2018-05-24T04:38:38.072Z,102651.84
2018-05-24T04:41:05.486Z,102653.02
2018-05-24T04:43:33.832Z,102651.00
2018-05-24T04:46:01.274Z,102649.38
2018-05-24T04:48:28.707Z,102650.18
2018-05-24T04:50:56.153Z,102655.49
2018-05-24T04:53:23.570Z,102653.06
2018-05-24T04:55:51.949Z,102656.91
2018-05-24T04:58:19.372Z,102656.95
2018-05-24T05:00:46.826Z,102661.17
2018-05-24T05:03:14.261Z,102656.05
2018-05-24T05:05:41.710Z,102655.95
2018-05-24T05:08:09.126Z,102654.70
2018-05-24T05:10:36.567Z,102656.30
2018-05-24T05:13:03.989Z,102656.37
2018-05-24T05:15:31.430Z,102655.93
2018-05-24T05:17:59.854Z,102666.35
2018-05-24T05:20:27.302Z,102661.19
2018-05-24T05:22:54.721Z,102658.87
2018-05-24T05:25:22.181Z,102658.81
2018-05-24T05:27:49.606Z,102666.54
2018-05-24T05:30:17.018Z,102663.00
2018-05-24T05:32:44.457Z,102669.14
2018-05-24T05:35:11.873Z,102665.92
2018-05-24T05:37:39.314Z,102664.19
2018-05-24T05:40:06.730Z,102665.45
2018-05-24T05:42:34.171Z,102659.22
2018-05-24T05:45:01.585Z,102665.89
2018-05-24T05:47:29.029Z,102668.41
2018-05-24T05:49:56.450Z,102662.78
2018-05-24T05:52:23.890Z,102664.71
2018-05-24T05:54:53.209Z,102659.62
2018-05-24T05:57:20.650Z,102661.56
2018-05-24T05:59:48.062Z,102660.70
2018-05-24T06:02:16.397Z,102654.45
2018-05-24T06:04:43.814Z,102654.41
2018-05-24T06:07:11.265Z,102654.84
2018-05-24T06:09:39.622Z,102655.72
2018-05-24T06:12:07.073Z,102657.00
2018-05-24T06:14:34.489Z,102655.38
2018-05-24T06:17:01.942Z,102653.24
2018-05-24T06:19:29.361Z,102654.72
2018-05-24T06:21:56.774Z,102654.39
2018-05-24T06:24:24.273Z,102652.80
2018-05-24T06:26:51.651Z,102645.02
2018-05-24T06:29:19.082Z,102655.30
2018-05-24T06:31:48.450Z,102651.66
2018-05-24T06:34:17.890Z,102657.27
2018-05-24T06:36:46.246Z,102656.90
2018-05-24T06:39:14.646Z,102658.24
2018-05-24T06:41:43.962Z,102657.28
2018-05-24T06:44:11.410Z,102665.25
2018-05-24T06:46:38.831Z,102659.92
2018-05-24T06:49:06.310Z,102664.08
2018-05-24T06:51:37.378Z,102676.00
2018-05-24T06:54:05.758Z,102674.39
2018-05-24T06:56:33.170Z,102674.19
2018-05-24T06:59:00.602Z,102669.30
2018-05-24T07:01:28.026Z,102672.16
2018-05-24T07:03:55.470Z,102670.92
2018-05-24T07:06:22.889Z,102665.49
2018-05-24T07:08:50.399Z,102671.50
2018-05-24T07:11:19.753Z,102678.38
2018-05-24T07:13:47.173Z,102675.22
2018-05-24T07:16:14.610Z,102667.50
2018-05-24T07:18:43.054Z,102676.41
2018-05-24T07:21:11.403Z,102670.86
2018-05-24T07:23:38.818Z,102677.94
2018-05-24T07:26:06.353Z,102678.39
2018-05-24T07:28:33.758Z,102674.08
2018-05-24T07:31:01.193Z,102676.75
2018-05-24T07:33:28.606Z,102680.58
2018-05-24T07:35:56.045Z,102676.48
2018-05-24T07:38:23.462Z,102680.86
2018-05-24T07:40:50.906Z,102682.80
2018-05-24T07:43:18.317Z,102688.90
2018-05-24T07:45:45.757Z,102690.17
2018-05-24T07:48:13.177Z,102682.36
2018-05-24T07:50:40.621Z,102693.27
2018-05-24T07:53:08.031Z,102684.72
2018-05-24T07:55:35.518Z,102680.63
2018-05-24T07:58:03.881Z,102679.89
2018-05-24T08:00:32.204Z,102683.00
2018-05-24T08:02:59.638Z,102684.95
2018-05-24T08:05:27.054Z,102688.70
2018-05-24T08:07:58.241Z,102684.91
2018-05-24T08:10:26.593Z,102675.82
2018-05-24T08:12:54.030Z,102678.98
2018-05-24T08:15:21.452Z,102686.33
2018-05-24T08:17:48.886Z,102685.62
2018-05-24T08:20:16.297Z,102678.84
2018-05-24T08:22:43.739Z,102688.99
2018-05-24T08:25:11.155Z,102683.02
2018-05-24T08:27:38.621Z,102686.02
2018-05-24T08:30:06.027Z,102692.86
2018-05-24T08:32:33.461Z,102681.81
2018-05-24T08:35:00.884Z,102684.08
2018-05-24T08:37:28.347Z,102678.18
2018-05-24T08:39:56.691Z,102672.83
2018-05-24T08:42:24.102Z,102681.94
2018-05-24T08:44:51.542Z,102675.30
2018-05-24T08:47:19.043Z,102685.41
2018-05-24T08:49:46.394Z,102684.95
2018-05-24T08:52:14.791Z,102683.05
2018-05-24T08:54:42.225Z,102679.70
2018-05-24T08:57:11.568Z,102676.70
2018-05-24T08:59:39.047Z,102680.53
2018-05-24T09:02:07.361Z,102673.16
2018-05-24T09:04:34.805Z,102675.58
2018-05-24T09:07:03.221Z,102670.85
2018-05-24T09:09:30.662Z,102671.69
2018-05-24T09:12:00.092Z,102670.44
2018-05-24T09:14:28.471Z,102672.92
2018-05-24T09:16:55.902Z,102682.02
2018-05-24T09:19:24.326Z,102677.87
2018-05-24T09:21:53.740Z,102673.48
2018-05-24T09:24:21.118Z,102659.91
2018-05-24T09:26:48.554Z,102668.58
2018-05-24T09:29:15.972Z,102674.08
2018-05-24T09:31:43.413Z,102664.77
2018-05-24T09:34:10.821Z,102668.17
2018-05-24T09:36:38.269Z,102667.67
2018-05-24T09:39:05.678Z,102660.83
2018-05-24T09:41:33.125Z,102663.92
2018-05-24T09:44:00.541Z,102659.48
2018-05-24T09:46:27.983Z,102661.02
2018-05-24T09:48:56.331Z,102663.55
2018-05-24T09:51:23.773Z,102649.27
2018-05-24T09:53:51.189Z,102650.25
2018-05-24T09:56:18.669Z,102648.19
2018-05-24T09:58:47.078Z,102647.09
2018-05-24T10:01:15.418Z,102650.70
2018-05-24T10:03:42.836Z,102652.05
2018-05-24T10:06:10.274Z,102649.61
2018-05-24T10:08:37.690Z,102641.07
2018-05-24T10:11:05.102Z,102659.48
2018-05-24T10:13:32.542Z,102647.53
2018-05-24T10:15:59.970Z,102649.09
2018-05-24T10:18:28.305Z,102647.37
2018-05-24T10:20:55.719Z,102640.05
2018-05-24T10:23:23.249Z,102636.23
2018-05-24T10:25:50.578Z,102639.95
2018-05-24T10:28:18.016Z,102634.90
2018-05-24T10:30:46.369Z,102634.95
2018-05-24T10:33:13.817Z,102628.62
2018-05-24T10:35:41.230Z,102625.98
2018-05-24T10:38:09.693Z,102631.54
2018-05-24T10:40:37.107Z,102637.73
2018-05-24T10:43:05.629Z,102631.09
2018-05-24T10:45:33.050Z,102635.06
2018-05-24T10:48:01.401Z,102632.17
2018-05-24T10:50:30.741Z,102629.05
2018-05-24T10:52:58.185Z,102629.32
2018-05-24T10:55:26.574Z,102630.47
2018-05-24T10:57:54.008Z,102633.66
2018-05-24T11:00:21.421Z,102635.02
2018-05-24T11:02:49.783Z,102629.58
2018-05-24T11:05:17.212Z,102634.65
2018-05-24T11:07:45.581Z,102629.55
2018-05-24T11:10:12.996Z,102629.36
2018-05-24T11:12:41.309Z,102619.52
2018-05-24T11:15:08.757Z,102628.56
2018-05-24T11:17:38.101Z,102621.95
2018-05-24T11:20:05.543Z,102613.59
2018-05-24T11:22:32.979Z,102624.09
2018-05-24T11:25:00.436Z,102620.70
2018-05-24T11:27:28.835Z,102608.17
2018-05-24T11:29:56.293Z,102615.78
2018-05-24T11:32:23.721Z,102600.06
2018-05-24T11:34:51.164Z,102610.01
2018-05-24T11:37:18.675Z,102613.43
2018-05-24T11:39:46.039Z,102608.33
2018-05-24T11:42:13.445Z,102600.20
2018-05-24T11:44:40.890Z,102613.11
2018-05-24T11:47:08.302Z,102598.47
2018-05-24T11:49:40.165Z,102601.72
2018-05-24T11:52:07.598Z,102596.36
2018-05-24T11:54:35.050Z,102596.77
2018-05-24T11:57:02.476Z,102597.98
2018-05-24T11:59:29.909Z,102587.19
2018-05-24T12:01:57.326Z,102586.68
2018-05-24T12:04:30.530Z,102589.67
2018-05-24T12:06:57.989Z,102582.77
2018-05-24T12:09:25.361Z,102581.33
2018-05-24T12:11:52.802Z,102580.75
2018-05-24T12:14:20.222Z,102583.06
2018-05-24T12:16:47.659Z,102578.31
2018-05-24T12:19:15.085Z,102577.33
2018-05-24T12:21:42.526Z,102573.99
2018-05-24T12:24:09.941Z,102568.69
2018-05-24T12:26:37.380Z,102574.73
2018-05-24T12:29:04.857Z,102576.33
2018-05-24T12:31:34.200Z,102560.86
2018-05-24T12:34:01.618Z,102560.95
2018-05-24T12:36:29.061Z,102560.24
2018-05-24T12:38:58.416Z,102557.74
2018-05-24T12:41:26.872Z,102545.12
2018-05-24T12:43:54.219Z,102553.80
2018-05-24T12:46:21.660Z,102548.88
2018-05-24T12:48:49.121Z,102548.12
2018-05-24T12:51:16.559Z,102547.33
2018-05-24T12:53:44.890Z,102530.30
2018-05-24T12:56:12.406Z,102543.42
2018-05-24T12:58:39.733Z,102532.80
2018-05-24T13:01:08.115Z,102516.09
2018-05-24T13:03:35.557Z,102525.30
2018-05-24T13:06:02.977Z,102527.84
2018-05-24T13:08:30.422Z,102515.41
2018-05-24T13:10:57.840Z,102524.17
2018-05-24T13:13:25.294Z,102526.29
2018-05-24T13:15:53.634Z,102526.23
2018-05-24T13:18:21.085Z,102512.52
2018-05-24T13:20:48.498Z,102524.20
2018-05-24T13:23:16.862Z,102506.84
2018-05-24T13:25:44.273Z,102502.67
2018-05-24T13:28:11.705Z,102523.66
2018-05-24T13:30:39.129Z,102505.02
2018-05-24T13:33:07.481Z,102494.41
2018-05-24T13:35:34.898Z,102496.47
2018-05-24T13:38:02.343Z,102496.03
2018-05-24T13:40:29.796Z,102489.38
2018-05-24T13:42:57.198Z,102491.84
2018-05-24T13:45:25.566Z,102492.18
2018-05-24T13:47:53.001Z,102484.15
2018-05-24T13:50:20.416Z,102480.89
2018-05-24T13:52:47.918Z,102485.05
2018-05-24T13:55:15.283Z,102476.26
2018-05-24T13:57:44.526Z,102470.50
2018-05-24T14:00:11.944Z,102478.73
2018-05-24T14:02:39.393Z,102477.13
2018-05-24T14:05:06.845Z,102469.91
2018-05-24T14:07:34.262Z,102465.20
2018-05-24T14:10:01.689Z,102469.58
2018-05-24T14:12:30.045Z,102461.48
2018-05-24T14:14:58.445Z,102462.08
2018-05-24T14:17:26.826Z,102455.34
2018-05-24T14:19:54.233Z,102466.08
2018-05-24T14:22:21.658Z,102459.52
2018-05-24T14:24:49.097Z,102451.45
2018-05-24T14:27:16.526Z,102448.97
2018-05-24T14:29:43.972Z,102450.00
2018-05-24T14:32:11.393Z,102445.22
2018-05-24T14:34:38.830Z,102438.88
2018-05-24T14:37:06.264Z,102443.11
2018-05-24T14:39:33.727Z,102441.02
2018-05-24T14:42:01.134Z,102431.66
2018-05-24T14:44:28.593Z,102434.69
2018-05-24T14:46:56.019Z,102433.44
2018-05-24T14:49:23.449Z,102433.20
2018-05-24T14:51:50.877Z,102437.07
2018-05-24T14:54:19.358Z,102429.94
2018-05-24T14:56:46.787Z,102431.95
2018-05-24T14:59:14.198Z,102436.00
2018-05-24T15:01:42.626Z,102424.55
2018-05-24T15:04:10.033Z,102425.41
2018-05-24T15:06:37.474Z,102416.91
2018-05-24T15:09:05.687Z,102417.97
2018-05-24T15:11:33.148Z,102408.11
2018-05-24T15:14:00.559Z,102411.03
2018-05-24T15:16:28.006Z,102406.84
2018-05-24T15:18:55.415Z,102411.25
2018-05-24T15:21:27.156Z,102420.62
2018-05-24T15:23:55.506Z,102404.58
2018-05-24T15:26:22.945Z,102408.52
2018-05-24T15:28:50.361Z,102406.06
2018-05-24T15:31:19.741Z,102401.70
2018-05-24T15:33:49.145Z,102401.88
2018-05-24T15:36:16.596Z,102407.05
2018-05-24T15:38:44.030Z,102404.59
2018-05-24T15:41:11.493Z,102402.50
2018-05-24T15:43:38.910Z,102402.47
2018-05-24T15:46:09.806Z,102403.22
2018-05-24T15:48:37.236Z,102394.38
2018-05-24T15:51:04.687Z,102399.22
2018-05-24T15:53:32.086Z,102391.21
2018-05-24T15:56:04.135Z,102397.05
2018-05-24T15:58:31.551Z,102392.09
2018-05-24T16:00:58.993Z,102396.53
2018-05-24T16:03:26.453Z,102390.89
2018-05-24T16:05:53.837Z,102393.04
2018-05-24T16:08:21.278Z,102400.73
2018-05-24T16:10:48.706Z,102399.28
2018-05-24T16:13:16.137Z,102398.52
2018-05-24T16:15:43.557Z,102395.16
2018-05-24T16:18:10.993Z,102386.63
2018-05-24T16:20:38.414Z,102384.42
2018-05-24T16:23:05.850Z,102390.47
2018-05-24T16:28:23.724Z,102393.08
2018-05-24T16:30:51.141Z,102378.45
2018-05-24T16:33:18.587Z,102377.00
2018-05-24T16:35:46.966Z,102376.00
2018-05-24T16:38:14.407Z,102373.41
2018-05-24T16:40:41.833Z,102371.92
2018-05-24T16:43:09.314Z,102371.72
2018-05-24T16:45:36.877Z,102371.14
2018-05-24T16:48:05.289Z,102371.55
2018-05-24T16:50:32.737Z,102370.72
2018-05-24T16:53:00.149Z,102368.66
2018-05-24T16:55:28.597Z,102367.05
2018-05-24T16:58:01.559Z,102369.17
2018-05-24T17:00:29.020Z,102372.55
2018-05-24T17:02:56.439Z,102373.72
2018-05-24T17:05:24.885Z,102373.39
2018-05-24T17:07:52.307Z,102372.66
2018-05-24T17:10:19.755Z,102366.06
2018-05-24T17:12:51.372Z,102371.89
2018-05-24T17:15:19.825Z,102368.50
2018-05-24T17:17:48.174Z,102365.29
2018-05-24T17:20:20.681Z,102371.12
2018-05-24T17:22:48.103Z,102369.23
2018-05-24T17:25:15.556Z,102369.45
2018-05-24T17:27:42.978Z,102369.23
2018-05-24T17:30:10.439Z,102381.20
2018-05-24T19:15:03.703Z,102428.92
2018-05-24T19:17:43.187Z,102425.51
2018-05-24T19:20:14.230Z,102432.06
2018-05-24T19:22:41.890Z,102428.72
2018-05-24T19:25:11.260Z,102427.04
2018-05-24T19:27:39.038Z,102431.50
2018-05-24T19:30:06.676Z,102438.05
2018-05-24T19:32:34.213Z,102432.97
2018-05-24T19:35:08.019Z,102432.64
2018-05-24T19:40:29.379Z,102434.48
2018-05-24T19:42:58.818Z,102437.61
2018-05-24T19:45:26.262Z,102435.21
2018-05-24T19:47:53.710Z,102436.48
2018-05-24T19:50:21.193Z,102443.19
2018-05-24T19:52:48.608Z,102437.57
2018-05-24T19:55:16.991Z,102439.13
2018-05-24T19:57:44.430Z,102440.73
2018-05-24T20:00:11.850Z,102445.03
2018-05-24T20:02:39.289Z,102443.72
2018-05-24T20:05:07.626Z,102446.02
2018-05-24T20:07:35.069Z,102439.80
2018-05-24T20:10:02.482Z,102443.92
2018-05-24T20:12:29.930Z,102448.94
2018-05-24T20:14:58.135Z,102446.91
2018-05-24T20:17:25.588Z,102447.89
2018-05-24T20:19:53.002Z,102447.42
2018-05-24T20:22:21.338Z,102444.91
2018-05-24T20:24:48.758Z,102440.23
2018-05-24T20:27:17.108Z,102434.66
2018-05-24T20:29:44.514Z,102434.31
2018-05-24T20:32:12.670Z,102436.41
2018-05-24T20:34:41.001Z,102435.41
2018-05-24T20:37:08.442Z,102437.44
2018-05-24T20:39:35.867Z,102440.45
2018-05-24T20:42:03.321Z,102442.84
2018-05-24T20:44:31.660Z,102447.48
2018-05-24T20:46:59.069Z,102445.84
2018-05-24T20:49:26.526Z,102444.25
2018-05-24T20:51:53.936Z,102442.09
2018-05-24T20:54:21.370Z,102442.91
2018-05-24T20:56:48.798Z,102446.68
2018-05-24T20:59:18.158Z,102448.73
2018-05-24T21:01:46.540Z,102445.80
2018-05-24T21:04:13.966Z,102447.55
2018-05-24T21:06:41.382Z,102450.98
2018-05-24T21:09:08.826Z,102447.61
2018-05-24T21:11:36.238Z,102446.84
2018-05-24T21:14:03.678Z,102453.02
2018-05-24T21:16:31.102Z,102445.77
2018-05-24T21:18:58.550Z,102447.14
2018-05-24T21:21:25.958Z,102445.50
2018-05-24T21:23:53.406Z,102443.37
2018-05-24T21:26:22.809Z,102444.41
2018-05-24T21:28:50.254Z,102441.89
2018-05-24T21:31:19.674Z,102441.91
2018-05-24T21:33:49.044Z,102444.31
2018-05-24T21:36:16.499Z,102446.00
2018-05-24T21:38:43.942Z,102447.03
2018-05-24T21:41:17.173Z,102452.41
2018-05-24T21:43:44.638Z,102452.72
2018-05-24T21:46:12.049Z,102449.44
2018-05-24T21:48:39.461Z,102452.02
2018-05-24T21:51:06.906Z,102452.38
2018-05-24T21:53:34.319Z,102451.97
2018-05-24T21:56:02.659Z,102453.34
2018-05-24T21:58:30.066Z,102448.06
2018-05-24T22:00:57.513Z,102457.59
2018-05-24T22:03:24.921Z,102456.03
2018-05-24T22:05:52.365Z,102458.85
2018-05-24T22:08:19.789Z,102461.58
2018-05-24T22:10:47.235Z,102465.08
2018-05-24T22:13:14.642Z,102462.92
2018-05-24T22:15:42.090Z,102470.47
2018-05-24T22:18:09.505Z,102466.95
2018-05-24T22:20:36.946Z,102469.45
2018-05-24T22:23:04.366Z,102464.39
2018-05-24T22:25:31.811Z,102466.09
2018-05-24T22:28:00.132Z,102467.23
2018-05-24T22:30:28.055Z,102464.77
2018-05-24T22:32:55.573Z,102463.39
2018-05-24T22:35:23.414Z,102466.28
2018-05-24T22:37:50.842Z,102461.19
2018-05-24T22:40:18.311Z,102460.73
2018-05-24T22:42:45.710Z,102456.81
2018-05-24T22:45:13.130Z,102458.45
2018-05-24T22:47:40.575Z,102457.76
2018-05-24T22:50:07.999Z,102450.01
2018-05-24T22:52:36.446Z,102456.77
2018-05-24T22:55:03.858Z,102454.64
2018-05-24T22:57:31.290Z,102458.45
2018-05-24T22:59:59.501Z,102452.94
2018-05-24T23:02:26.950Z,102453.83
2018-05-24T23:04:54.406Z,102449.41
2018-05-24T23:07:21.818Z,102446.34
2018-05-24T23:09:49.246Z,102449.10
2018-05-24T23:12:16.686Z,102450.09
2018-05-24T23:14:44.109Z,102446.34
2018-05-24T23:17:11.710Z,102445.52
2018-05-24T23:19:41.073Z,102444.09
2018-05-24T23:22:08.483Z,102437.70
2018-05-24T23:24:35.939Z,102436.83
2018-05-24T23:27:03.365Z,102439.13
2018-05-24T23:29:30.823Z,102433.14
2018-05-24T23:31:58.234Z,102437.08
2018-05-24T23:34:25.676Z,102431.70
2018-05-24T23:36:53.091Z,102436.57
2018-05-24T23:39:21.519Z,102432.27
2018-05-24T23:41:48.928Z,102428.76
2018-05-24T23:44:16.365Z,102429.92
2018-05-24T23:46:43.773Z,102434.17
2018-05-24T23:49:11.213Z,102437.97
2018-05-24T23:51:38.629Z,102434.85
2018-05-24T23:54:06.086Z,102435.21
2018-05-24T23:56:33.509Z,102432.90
2018-05-24T23:59:00.925Z,102429.95
